Time;durP1;ratioP1;P1;durP2;ratioP2;P2;SDS_P1;SDS_P2;PMS_P1;PMS_P2;Temp;Humidity;BMP_temperature;BMP_pressure;BME280_temperature;BME280_humidity;BME280_pressure;Samples;Min_cycle;Max_cycle;Signal;HPM_P1;HPM_P2
2023/01/14 00:00:53;;;;;;;1999.90;999.90;;;;;;;4.27;100.00;94963.31;5066642;28;20412;-65
2023/01/14 00:03:18;;;;;;;1999.90;999.90;;;;;;;4.25;100.00;94967.53;5068091;28;20165;-65
2023/01/14 00:05:58;;;;;;;1999.90;999.90;;;;;;;4.24;100.00;94965.97;5070481;28;20169;-67
2023/01/14 00:08:23;;;;;;;1999.90;999.90;;;;;;;4.22;100.00;94965.59;5070854;28;20162;-67
2023/01/14 00:10:48;;;;;;;1999.90;999.90;;;;;;;4.18;100.00;94967.50;5070785;28;20176;-67
2023/01/14 00:13:14;;;;;;;1999.90;999.90;;;;;;;4.15;100.00;94979.03;5070263;28;20172;-66
2023/01/14 00:15:39;;;;;;;1999.90;999.90;;;;;;;4.13;100.00;94975.91;5070913;28;20244;-66
2023/01/14 00:18:05;;;;;;;1999.90;999.90;;;;;;;4.13;100.00;94978.63;5070272;28;20171;-67
2023/01/14 00:20:30;;;;;;;1999.90;999.90;;;;;;;4.11;100.00;94970.13;5070040;28;20229;-68
2023/01/14 00:22:56;;;;;;;1999.90;999.90;;;;;;;4.09;100.00;94981.31;5070830;28;20173;-66
2023/01/14 00:25:21;;;;;;;1999.90;999.90;;;;;;;4.09;100.00;94985.91;5070208;28;20400;-66
2023/01/14 00:27:47;;;;;;;1999.90;999.90;;;;;;;4.12;100.00;94990.59;5069820;28;20166;-66
2023/01/14 00:30:12;;;;;;;1999.90;999.90;;;;;;;4.10;100.00;94998.25;5070018;28;20190;-66
2023/01/14 00:32:37;;;;;;;1999.90;999.90;;;;;;;4.15;100.00;95008.75;5069718;28;20166;-67
2023/01/14 00:35:03;;;;;;;1999.90;999.90;;;;;;;4.11;100.00;95016.81;5069741;28;20248;-66
2023/01/14 00:37:28;;;;;;;1999.90;999.90;;;;;;;4.08;100.00;95016.78;5070172;28;20173;-66
2023/01/14 00:39:54;;;;;;;1999.90;999.90;;;;;;;4.07;100.00;95028.75;5069928;28;20197;-65
2023/01/14 00:42:19;;;;;;;1999.90;999.90;;;;;;;4.03;100.00;95036.00;5069541;28;20169;-65
2023/01/14 00:44:46;;;;;;;1999.90;999.90;;;;;;;4.02;100.00;95035.25;5069516;28;20165;-65
2023/01/14 00:47:11;;;;;;;1999.90;999.90;;;;;;;4.00;100.00;95052.97;5069874;28;20196;-65
2023/01/14 00:49:36;;;;;;;1999.90;999.90;;;;;;;4.02;100.00;95061.47;5069926;28;20385;-66
2023/01/14 00:52:03;;;;;;;1999.90;999.90;;;;;;;4.00;100.00;95063.78;5069365;28;20252;-66
2023/01/14 00:54:28;;;;;;;1999.90;999.90;;;;;;;3.99;100.00;95073.00;5069352;28;20172;-65
2023/01/14 00:56:53;;;;;;;1999.90;999.90;;;;;;;3.93;100.00;95086.06;5069203;28;20173;-65
2023/01/14 00:59:21;;;;;;;1999.90;999.90;;;;;;;3.92;100.00;95083.72;5069831;28;20173;-65
2023/01/14 01:01:47;;;;;;;1999.90;999.90;;;;;;;3.88;100.00;95083.69;5069706;28;20504;-66
2023/01/14 01:04:12;;;;;;;1999.90;999.90;;;;;;;3.89;100.00;95085.25;5069147;28;20173;-66
2023/01/14 01:06:38;;;;;;;1999.90;999.90;;;;;;;3.90;100.00;95077.94;5069895;28;20169;-66
2023/01/14 01:09:03;;;;;;;1999.90;999.90;;;;;;;3.91;100.00;95076.78;5069070;28;20205;-66
2023/01/14 01:11:29;;;;;;;1999.90;999.90;;;;;;;3.90;100.00;95064.44;5069236;28;20173;-66
2023/01/14 01:13:56;;;;;;;1999.90;999.90;;;;;;;3.91;100.00;95065.97;5069220;28;20177;-65
2023/01/14 01:16:23;;;;;;;1999.90;999.90;;;;;;;3.97;100.00;95059.13;5068959;28;20169;-66
2023/01/14 01:18:51;;;;;;;1999.90;999.90;;;;;;;4.03;100.00;95057.63;5069308;28;20197;-66
2023/01/14 01:21:17;;;;;;;1999.90;999.90;;;;;;;4.07;100.00;95066.56;5069412;28;20170;-66
2023/01/14 01:23:45;;;;;;;1999.90;999.90;;;;;;;4.04;100.00;95075.41;5068792;28;20173;-67
2023/01/14 01:26:16;;;;;;;1999.90;999.90;;;;;;;4.01;100.00;95078.84;5069039;28;20180;-67
2023/01/14 01:28:42;;;;;;;1999.90;999.90;;;;;;;4.02;100.00;95085.78;5068636;28;20268;-67
2023/01/14 01:31:12;;;;;;;1999.90;999.90;;;;;;;3.87;100.00;95087.56;5068990;28;20168;-67
2023/01/14 01:33:39;;;;;;;1999.90;999.90;;;;;;;3.88;100.00;95078.31;5068464;28;20157;-67
2023/01/14 01:36:12;;;;;;;1999.90;999.90;;;;;;;3.84;100.00;95063.19;5068668;28;20461;-68
2023/01/14 01:38:37;;;;;;;1999.90;999.90;;;;;;;3.84;100.00;95052.41;5069031;28;20160;-68
2023/01/14 01:41:03;;;;;;;1999.90;999.90;;;;;;;3.79;100.00;95047.31;5068384;28;20189;-67
2023/01/14 01:43:32;;;;;;;1999.90;999.90;;;;;;;3.80;100.00;95044.25;5068426;28;20169;-67
2023/01/14 01:45:59;;;;;;;1999.90;999.90;;;;;;;3.77;100.00;95044.22;5068453;28;20162;-66
2023/01/14 01:48:41;;;;;;;1999.90;999.90;;;;;;;3.73;100.00;95038.00;5068335;28;20502;-67
2023/01/14 01:51:12;;;;;;;1999.90;999.90;;;;;;;3.75;100.00;95024.91;5068911;28;20168;-66
2023/01/14 01:53:42;;;;;;;1999.90;999.90;;;;;;;3.81;100.00;95026.13;5068596;28;20165;-68
2023/01/14 01:56:15;;;;;;;1999.90;999.90;;;;;;;3.81;100.00;95031.53;5068305;28;20183;-68
2023/01/14 01:58:42;;;;;;;1999.90;999.90;;;;;;;3.84;100.00;95028.88;5068215;28;20161;-68
2023/01/14 02:01:07;;;;;;;1999.90;999.90;;;;;;;3.88;100.00;95039.69;5068250;28;20199;-68
2023/01/14 02:03:41;;;;;;;1999.90;999.90;;;;;;;3.97;100.00;95045.59;5068609;28;20161;-67
2023/01/14 02:06:07;;;;;;;1999.90;999.90;;;;;;;4.01;100.00;95044.50;5068855;28;20162;-67
2023/01/14 02:08:35;;;;;;;1999.90;999.90;;;;;;;4.07;100.00;95053.06;5067887;28;20157;-67
2023/01/14 02:11:38;;;;;;;1999.90;999.90;;;;;;;4.10;100.00;95046.88;5067953;28;20166;-67
2023/01/14 02:14:16;;;;;;;1999.90;999.90;;;;;;;4.13;100.00;95056.97;5068334;28;20461;-67
2023/01/14 02:16:59;;;;;;;1999.90;999.90;;;;;;;4.17;100.00;95057.78;5068180;28;20165;-67
2023/01/14 02:20:08;;;;;;;1999.90;999.90;;;;;;;4.20;100.00;95062.44;5067941;28;20374;-68
2023/01/14 02:23:11;;;;;;;1999.90;999.90;;;;;;;4.20;100.00;95078.66;5068267;28;20165;-67
2023/01/14 02:25:55;;;;;;;1999.90;999.90;;;;;;;4.18;100.00;95075.56;5067683;28;20169;-66
2023/01/14 02:28:45;;;;;;;1999.90;999.90;;;;;;;4.15;100.00;95076.28;5067623;28;20166;-67
2023/01/14 02:31:29;;;;;;;1999.90;999.90;;;;;;;4.09;100.00;95093.97;5067856;28;20181;-67
2023/01/14 02:34:06;;;;;;;1999.90;999.90;;;;;;;4.07;100.00;95085.47;5067975;28;20250;-67
2023/01/14 02:36:35;;;;;;;1999.90;999.90;;;;;;;4.06;100.00;95092.00;5067569;28;20161;-67
2023/01/14 02:39:30;;;;;;;1999.90;999.90;;;;;;;3.98;100.00;95084.97;5067891;28;20244;-67
2023/01/14 02:44:57;;;;;;;1999.90;999.90;;;;;;;3.97;100.00;95078.03;5085130;28;20153;-67
2023/01/14 02:47:26;;;;;;;1999.90;999.90;;;;;;;3.96;100.00;95079.16;5067605;28;20291;-67
2023/01/14 02:49:55;;;;;;;1999.90;999.90;;;;;;;3.94;100.00;95073.34;5067213;28;20197;-66
2023/01/14 02:52:21;;;;;;;1999.90;999.90;;;;;;;3.92;100.00;95059.44;5067214;28;20162;-66
2023/01/14 02:55:01;;;;;;;1999.90;999.90;;;;;;;3.88;100.00;95055.91;5067458;28;20211;-66
2023/01/14 02:57:55;;;;;;;1999.90;999.90;;;;;;;3.91;100.00;95033.56;5067476;28;20186;-67
2023/01/14 03:00:41;;;;;;;1999.90;999.90;;;;;;;3.95;100.00;95042.50;5067875;28;20191;-66
2023/01/14 03:03:36;;;;;;;1999.90;999.90;;;;;;;3.97;100.00;95032.09;5017233;28;20169;-66
2023/01/14 03:06:13;;;;;;;1999.90;999.90;;;;;;;4.07;100.00;95034.16;5067137;28;20157;-66
2023/01/14 03:08:57;;;;;;;1999.90;999.90;;;;;;;4.14;100.00;95043.09;5067514;28;20236;-68
2023/01/14 03:11:27;;;;;;;1999.90;999.90;;;;;;;4.27;100.00;95033.59;5067554;28;20157;-66
2023/01/14 03:14:06;;;;;;;1999.90;999.90;;;;;;;4.35;100.00;95037.13;5067493;28;20199;-66
2023/01/14 03:16:46;;;;;;;1999.90;999.90;;;;;;;4.45;100.00;95047.25;5066925;28;20172;-66
2023/01/14 03:19:29;;;;;;;1999.90;999.90;;;;;;;4.56;100.00;95054.31;5066960;28;20246;-66
2023/01/14 03:21:58;;;;;;;1999.90;999.90;;;;;;;4.56;100.00;95065.13;5067041;28;20195;-66
2023/01/14 03:24:32;;;;;;;1999.90;999.90;;;;;;;4.62;100.00;95073.69;5066895;28;20166;-66
2023/01/14 03:27:04;;;;;;;1999.90;999.90;;;;;;;4.67;100.00;95084.13;5067375;28;20149;-67
2023/01/14 03:29:54;;;;;;;1999.90;999.90;;;;;;;4.73;100.00;95107.00;5067446;28;20200;-70
2023/01/14 03:32:30;;;;;;;1999.90;999.90;;;;;;;4.71;100.00;95120.88;5067113;28;20162;-70
2023/01/14 03:35:24;;;;;;;1999.90;999.90;;;;;;;4.69;100.00;95134.00;5066853;28;20165;-69
2023/01/14 03:38:03;;;;;;;1999.90;999.90;;;;;;;4.68;100.00;95142.47;5067585;28;20211;-69
2023/01/14 03:40:31;;;;;;;1999.90;999.90;;;;;;;4.68;100.00;95161.41;5071384;28;20173;-69
2023/01/14 03:43:03;;;;;;;1999.90;999.90;;;;;;;4.66;100.00;95178.00;5070774;28;20169;-67
2023/01/14 03:45:34;;;;;;;1999.90;999.90;;;;;;;4.68;100.00;95183.81;5070999;28;20193;-68
2023/01/14 03:48:00;;;;;;;1999.90;999.90;;;;;;;4.72;100.00;95181.13;5070691;28;20223;-67
2023/01/14 03:50:53;;;;;;;1999.90;999.90;;;;;;;4.74;100.00;95192.38;5070596;28;20489;-67
2023/01/14 03:53:42;;;;;;;1999.90;999.90;;;;;;;4.73;100.00;95190.84;5033656;28;20182;-66
2023/01/14 03:56:10;;;;;;;1999.90;999.90;;;;;;;4.75;100.00;95197.41;5070440;28;20208;-67
2023/01/14 03:58:44;;;;;;;1999.90;999.90;;;;;;;4.73;100.00;95204.34;5070454;28;20177;-66
2023/01/14 04:01:16;;;;;;;1999.90;999.90;;;;;;;4.72;100.00;95213.59;5070401;28;20169;-66
2023/01/14 04:03:42;;;;;;;1999.90;999.90;;;;;;;4.66;100.00;95215.09;5070926;28;20207;-66
2023/01/14 04:06:09;;;;;;;1999.90;999.90;;;;;;;4.68;100.00;95226.31;5070296;28;20245;-66
2023/01/14 04:08:34;;;;;;;1999.90;999.90;;;;;;;4.63;100.00;95226.63;5070156;28;20165;-66
2023/01/14 04:10:59;;;;;;;1999.90;999.90;;;;;;;4.58;100.00;95229.66;5070355;28;20165;-66
2023/01/14 04:16:09;;;;;;;1999.90;999.90;;;;;;;4.54;100.00;95228.84;5087866;28;20167;-66
2023/01/14 04:18:35;;;;;;;1999.90;999.90;;;;;;;4.55;100.00;95225.00;5069807;28;20277;-66
2023/01/14 04:21:00;;;;;;;1999.90;999.90;;;;;;;4.53;100.00;95230.00;5070031;28;20192;-66
2023/01/14 04:23:26;;;;;;;1999.90;999.90;;;;;;;4.49;100.00;95229.16;5069925;28;20173;-66
2023/01/14 04:25:58;;;;;;;1999.90;999.90;;;;;;;4.42;100.00;95231.78;5069951;28;20212;-67
2023/01/14 04:28:24;;;;;;;1999.90;999.90;;;;;;;4.42;100.00;95226.38;5069961;28;20176;-66
2023/01/14 04:30:49;;;;;;;1999.90;999.90;;;;;;;4.36;100.00;95206.22;5070225;28;20269;-67
2023/01/14 04:33:15;;;;;;;1999.90;999.90;;;;;;;4.36;100.00;95214.31;5069769;28;20205;-66
2023/01/14 04:35:40;;;;;;;1999.90;999.90;;;;;;;4.32;100.00;95211.59;5069954;28;20182;-64
2023/01/14 04:38:06;;;;;;;1999.90;999.90;;;;;;;4.31;100.00;95206.56;5070266;28;20169;-65
2023/01/14 04:40:31;;;;;;;1999.90;999.90;;;;;;;4.33;100.00;95201.56;5069840;28;20176;-65
2023/01/14 04:42:57;;;;;;;1999.90;999.90;;;;;;;4.30;100.00;95202.31;5069644;28;20196;-67
2023/01/14 04:45:22;;;;;;;1999.90;999.90;;;;;;;4.36;100.00;95206.22;5069352;28;20172;-67
2023/01/14 04:47:50;;;;;;;1999.90;999.90;;;;;;;4.34;100.00;95197.72;5069101;28;20227;-68
2023/01/14 04:50:31;;;;;;;1999.90;999.90;;;;;;;4.35;100.00;95204.66;5069348;28;20238;-68
2023/01/14 04:53:04;;;;;;;1999.90;999.90;;;;;;;4.37;100.00;95208.56;5069968;28;20161;-67
2023/01/14 04:55:29;;;;;;;1999.90;999.90;;;;;;;4.35;100.00;95213.56;5069396;28;20203;-67
2023/01/14 04:57:55;;;;;;;1999.90;999.90;;;;;;;4.35;100.00;95210.06;5069910;28;20169;-68
2023/01/14 05:00:20;;;;;;;1999.90;999.90;;;;;;;4.40;100.00;95212.47;5069424;28;20169;-67
2023/01/14 05:02:46;;;;;;;1999.90;999.90;;;;;;;4.45;100.00;95215.63;5069277;28;20335;-68
2023/01/14 05:05:11;;;;;;;1999.90;999.90;;;;;;;4.51;100.00;95230.34;5069602;28;20191;-68
2023/01/14 05:07:39;;;;;;;1999.90;999.90;;;;;;;4.52;100.00;95231.16;5069665;28;20215;-67
2023/01/14 05:10:05;;;;;;;1999.90;999.90;;;;;;;4.53;100.00;95244.28;5069026;28;20370;-67
2023/01/14 05:12:30;;;;;;;1999.90;999.90;;;;;;;4.52;100.00;95258.19;5069113;28;20166;-67
2023/01/14 05:14:56;;;;;;;1999.90;999.90;;;;;;;4.56;100.00;95275.22;5069301;28;20165;-67
2023/01/14 05:17:21;;;;;;;1999.90;999.90;;;;;;;4.58;100.00;95278.31;5068866;28;20192;-66
2023/01/14 05:19:46;;;;;;;1999.90;999.90;;;;;;;4.61;100.00;95288.41;5069054;28;20235;-67
2023/01/14 05:22:12;;;;;;;1999.90;999.90;;;;;;;4.63;100.00;95288.81;5068917;28;20402;-66
2023/01/14 05:24:37;;;;;;;1999.90;999.90;;;;;;;4.66;100.00;95307.78;5068886;28;20169;-66
2023/01/14 05:27:02;;;;;;;1999.90;999.90;;;;;;;4.66;100.00;95302.38;5068794;28;20229;-67
2023/01/14 05:29:28;;;;;;;1999.90;999.90;;;;;;;4.63;100.00;95307.75;5068792;28;20539;-66
2023/01/14 05:31:53;;;;;;;1999.90;999.90;;;;;;;4.65;100.00;95313.56;5068561;28;20193;-66
2023/01/14 05:34:18;;;;;;;1999.90;999.90;;;;;;;4.62;100.00;95317.03;5068855;28;20165;-67
2023/01/14 05:36:44;;;;;;;1999.90;999.90;;;;;;;4.60;100.00;95324.72;5069106;28;20176;-67
2023/01/14 05:39:10;;;;;;;1999.90;999.90;;;;;;;4.57;100.00;95333.53;5068900;28;20248;-66
2023/01/14 05:45:37;;;;;;;1999.90;999.90;;;;;;;4.57;100.00;95330.84;5068772;28;20244;-66
2023/01/14 05:47:05;;;;;;;1999.90;999.90;;;;;;;4.49;100.00;95324.56;5086014;28;20157;-67
2023/01/14 05:49:30;;;;;;;1999.90;999.90;;;;;;;4.45;100.00;95323.75;5068843;28;20207;-67
2023/01/14 05:51:55;;;;;;;1999.90;999.90;;;;;;;4.41;100.00;95327.53;5068315;28;20165;-66
2023/01/14 05:54:21;;;;;;;1999.90;999.90;;;;;;;4.32;100.00;95324.31;5068282;28;20193;-67
2023/01/14 05:56:46;;;;;;;1999.90;999.90;;;;;;;4.25;100.00;95313.41;5068208;28;20173;-66
2023/01/14 05:59:11;;;;;;;1999.90;999.90;;;;;;;4.16;100.00;95313.69;5068240;28;20223;-66
2023/01/14 06:07:05;;;;;;;1999.90;999.90;;;;;;;3.90;100.00;95302.09;5085815;28;20222;-66
2023/01/14 06:09:30;;;;;;;1999.90;999.90;;;;;;;3.84;100.00;95293.50;5067962;28;20224;-66
2023/01/14 06:12:02;;;;;;;1999.90;999.90;;;;;;;3.81;100.00;95282.63;5068043;28;20177;-66
2023/01/14 06:14:32;;;;;;;1999.90;999.90;;;;;;;3.75;100.00;95284.09;5068584;28;20450;-66
2023/01/14 06:16:58;;;;;;;1999.90;999.90;;;;;;;3.70;100.00;95268.19;5068317;28;20169;-67
2023/01/14 06:19:24;;;;;;;1999.90;999.90;;;;;;;3.64;100.00;95266.97;5068048;28;20363;-66
2023/01/14 06:21:49;;;;;;;1999.90;999.90;;;;;;;3.58;100.00;95246.81;5068225;28;20204;-66
2023/01/14 06:24:16;;;;;;;1999.90;999.90;;;;;;;3.53;100.00;95235.19;5067861;28;20458;-66
2023/01/14 06:26:41;;;;;;;1999.90;999.90;;;;;;;3.49;100.00;95223.53;5068307;28;20177;-66
2023/01/14 06:29:09;;;;;;;1999.90;999.90;;;;;;;3.45;100.00;95225.41;5067531;28;20200;-65
2023/01/14 06:31:36;;;;;;;1999.90;999.90;;;;;;;3.39;100.00;95224.16;5067666;28;20363;-64
2023/01/14 06:34:02;;;;;;;1999.90;999.90;;;;;;;3.37;100.00;95210.25;5068114;28;20252;-65
2023/01/14 06:36:29;;;;;;;1999.90;999.90;;;;;;;3.31;100.00;95198.19;5067527;28;20176;-65
2023/01/14 06:38:54;;;;;;;1999.90;999.90;;;;;;;3.26;100.00;95165.34;5067659;28;20195;-67
2023/01/14 06:41:20;;;;;;;1999.90;999.90;;;;;;;3.18;100.00;95153.66;5067971;28;20197;-67
2023/01/14 06:43:45;;;;;;;1999.90;999.90;;;;;;;3.13;100.00;95131.63;5067482;28;20169;-68
2023/01/14 06:46:12;;;;;;;1999.90;999.90;;;;;;;3.07;100.00;95120.34;5067310;28;20173;-67
2023/01/14 06:48:38;;;;;;;1999.90;999.90;;;;;;;3.05;100.00;95100.28;5067515;28;20295;-68
2023/01/14 06:51:12;;;;;;;1999.90;999.90;;;;;;;2.99;100.00;95094.41;5067211;28;20188;-68
2023/01/14 06:53:38;;;;;;;1999.90;999.90;;;;;;;2.96;100.00;95070.88;5067802;28;20210;-66
2023/01/14 06:56:05;;;;;;;1999.90;999.90;;;;;;;2.93;100.00;95057.34;5067369;28;20172;-67
2023/01/14 06:58:31;;;;;;;1999.90;999.90;;;;;;;2.93;100.00;95038.47;5067216;28;20169;-66
2023/01/14 07:00:57;;;;;;;1999.90;999.90;;;;;;;2.90;100.00;95021.13;5067106;28;20259;-66
2023/01/14 07:03:23;;;;;;;1999.90;999.90;;;;;;;2.91;100.00;95014.56;5067401;28;20165;-66
2023/01/14 07:05:48;;;;;;;1999.90;999.90;;;;;;;2.93;100.00;94993.44;5067052;28;20165;-64
2023/01/14 07:08:13;;;;;;;1999.90;999.90;;;;;;;2.95;100.00;94980.34;5067132;28;20165;-65
2023/01/14 07:10:39;;;;;;;1999.90;999.90;;;;;;;2.94;100.00;94970.72;5067322;28;20262;-66
2023/01/14 07:13:04;;;;;;;1999.90;999.90;;;;;;;2.99;100.00;94954.19;5066970;28;20169;-63
2023/01/14 07:15:30;;;;;;;1999.90;999.90;;;;;;;3.04;100.00;94947.72;5067091;28;20204;-65
2023/01/14 07:17:55;;;;;;;1999.90;999.90;;;;;;;3.15;100.00;94941.34;5067045;28;20369;-64
2023/01/14 07:20:20;;;;;;;1999.90;999.90;;;;;;;3.20;100.00;94935.59;5066920;28;20260;-64
2023/01/14 07:22:46;;;;;;;1999.90;999.90;;;;;;;3.39;100.00;94931.97;5066981;28;20430;-65
2023/01/14 07:25:11;;;;;;;1999.90;999.90;;;;;;;3.91;100.00;94903.94;5066987;28;20169;-66
2023/01/14 07:27:37;;;;;;;1999.90;999.90;;;;;;;4.66;100.00;94896.03;5067037;28;20172;-64
2023/01/14 07:30:03;;;;;;;1999.90;999.90;;;;;;;5.59;100.00;94907.63;5066855;28;20189;-64
2023/01/14 07:32:28;;;;;;;1999.90;999.90;;;;;;;6.25;100.00;94988.31;5066942;28;20172;-62
2023/01/14 07:34:54;;;;;;;1999.90;999.90;;;;;;;6.75;100.00;95156.16;5066815;28;20162;-62
2023/01/14 07:37:19;;;;;;;1999.90;999.90;;;;;;;7.43;100.00;95288.16;5066712;28;20355;-64
2023/01/14 07:39:44;;;;;;;1999.90;999.90;;;;;;;8.02;100.00;95406.31;5067321;28;20169;-64
2023/01/14 07:42:10;;;;;;;1999.90;999.90;;;;;;;8.37;100.00;95485.28;5066715;28;20169;-65
2023/01/14 07:44:36;;;;;;;1999.90;999.90;;;;;;;8.85;100.00;95541.72;5067133;28;20240;-64
2023/01/14 07:47:02;;;;;;;1999.90;999.90;;;;;;;9.05;100.00;95567.41;5066863;28;20168;-66
2023/01/14 07:49:27;;;;;;;1999.90;999.90;;;;;;;9.47;100.00;95594.63;5067214;28;20277;-62
2023/01/14 07:51:52;;;;;;;1999.90;999.90;;;;;;;9.71;100.00;95610.22;5066893;28;20180;-62
2023/01/14 07:54:18;;;;;;;1999.90;999.90;;;;;;;9.92;100.00;95612.13;5066681;28;20173;-62
2023/01/14 07:56:47;;;;;;;1999.90;999.90;;;;;;;10.43;100.00;95617.03;5067105;28;20215;-61
2023/01/14 07:59:12;;;;;;;1999.90;999.90;;;;;;;10.85;100.00;95616.84;5066686;28;20520;-63
2023/01/14 08:01:37;;;;;;;1999.90;999.90;;;;;;;11.14;100.00;95631.91;5067141;28;20174;-61
2023/01/14 08:04:04;;;;;;;1999.90;999.90;;;;;;;11.40;100.00;95626.59;5066579;28;20214;-61
2023/01/14 08:06:29;;;;;;;1999.90;999.90;;;;;;;11.36;100.00;95634.06;5066999;28;20464;-64
2023/01/14 08:08:55;;;;;;;1999.90;999.90;;;;;;;11.31;100.00;95639.19;5066807;28;20242;-64
2023/01/14 08:11:21;;;;;;;1999.90;999.90;;;;;;;11.45;100.00;95636.34;5067250;28;20170;-64
2023/01/14 08:13:49;;;;;;;1999.90;999.90;;;;;;;10.96;100.00;95639.44;5067026;28;20199;-67
2023/01/14 08:16:15;;;;;;;1999.90;999.90;;;;;;;10.07;100.00;95632.75;5066554;28;20166;-65
2023/01/14 08:18:40;;;;;;;1999.90;999.90;;;;;;;9.17;100.00;95646.03;5066389;28;20229;-66
2023/01/14 08:21:09;;;;;;;1999.90;999.90;;;;;;;8.90;100.00;95630.41;5066193;28;20388;-65
2023/01/14 08:23:35;;;;;;;1999.90;999.90;;;;;;;9.06;100.00;95628.91;5066860;28;20172;-65
2023/01/14 08:26:01;;;;;;;1999.90;999.90;;;;;;;8.85;100.00;95628.84;5068651;28;20251;-64
2023/01/14 08:28:27;;;;;;;1999.90;999.90;;;;;;;8.26;100.00;95637.59;5069763;28;20483;-64
2023/01/14 08:31:02;;;;;;;1999.90;999.90;;;;;;;8.38;100.00;95639.97;5069686;28;20281;-64
2023/01/14 08:33:28;;;;;;;1999.90;999.90;;;;;;;8.52;100.00;95626.44;5069827;28;20169;-62
2023/01/14 08:35:53;;;;;;;1999.90;999.90;;;;;;;9.01;100.00;95620.31;5069870;28;20249;-62
2023/01/14 08:38:19;;;;;;;1999.90;999.90;;;;;;;9.13;100.00;95618.00;5069655;28;20196;-62
2023/01/14 08:40:47;;;;;;;1999.90;999.90;;;;;;;9.19;100.00;95621.91;5069594;28;20183;-62
2023/01/14 08:43:13;;;;;;;1999.90;999.90;;;;;;;9.33;100.00;95619.16;5069582;28;20201;-59
2023/01/14 08:45:38;;;;;;;1999.90;999.90;;;;;;;9.46;100.00;95620.34;5068934;28;20414;-66
2023/01/14 08:48:04;;;;;;;1999.90;999.90;;;;;;;9.88;100.00;95609.38;5069391;28;20382;-64
2023/01/14 08:50:30;;;;;;;1999.90;999.90;;;;;;;9.77;100.00;95603.16;5069328;28;20199;-65
2023/01/14 08:52:55;;;;;;;1999.90;999.90;;;;;;;10.16;100.00;95607.78;5069922;28;20175;-66
2023/01/14 08:55:20;;;;;;;1999.90;999.90;;;;;;;10.63;100.00;95604.47;5069662;28;20194;-66
2023/01/14 08:57:46;;;;;;;1999.90;999.90;;;;;;;10.39;100.00;95605.34;5069218;28;20195;-66
2023/01/14 09:00:12;;;;;;;1999.90;999.90;;;;;;;10.99;100.00;95590.22;5069289;28;20170;-66
2023/01/14 09:02:37;;;;;;;1999.90;999.90;;;;;;;10.20;100.00;95592.19;5069174;28;20172;-67
2023/01/14 09:05:03;;;;;;;1999.90;999.90;;;;;;;10.29;100.00;95590.59;5069708;28;20303;-68
2023/01/14 09:18:24;;;;;;;1999.90;999.90;;;;;;;10.24;100.00;95579.31;5086774;28;20199;-63
2023/01/14 09:20:49;;;;;;;1999.90;999.90;;;;;;;10.58;100.00;95580.31;5068968;28;20228;-77
2023/01/14 09:23:15;;;;;;;1999.90;999.90;;;;;;;11.36;100.00;95576.66;5069001;28;20176;-63
2023/01/14 09:25:40;;;;;;;1999.90;999.90;;;;;;;11.17;100.00;95579.13;5068561;28;20173;-64
2023/01/14 09:28:06;;;;;;;1999.90;999.90;;;;;;;11.11;100.00;95580.75;5069136;28;20185;-66
2023/01/14 09:30:31;;;;;;;1999.90;999.90;;;;;;;11.57;100.00;95575.69;5069173;28;20201;-65
2023/01/14 09:32:56;;;;;;;1999.90;999.90;;;;;;;10.83;100.00;95594.59;5068333;28;20406;-65
2023/01/14 09:35:22;;;;;;;1999.90;999.90;;;;;;;10.38;100.00;95593.66;5069155;28;20176;-66
2023/01/14 09:37:47;;;;;;;1999.90;999.90;;;;;;;10.98;100.00;95583.19;5068869;28;20248;-65
2023/01/14 09:40:13;;;;;;;1999.90;999.90;;;;;;;11.30;100.00;95582.97;5069217;28;20177;-66
2023/01/14 09:42:41;;;;;;;1999.90;999.90;;;;;;;11.26;100.00;95582.97;5068486;28;20192;-65
2023/01/14 09:45:15;;;;;;;1999.90;999.90;;;;;;;10.81;100.00;95586.03;5068536;28;20207;-65
2023/01/14 09:47:42;;;;;;;1999.90;999.90;;;;;;;10.09;100.00;95571.16;5068368;28;20216;-66
2023/01/14 09:50:15;;;;;;;1999.90;999.90;;;;;;;9.74;100.00;95563.06;5068202;28;20230;-67
2023/01/14 09:53:17;;;;;;;1999.90;999.90;;;;;;;9.57;100.00;95554.91;5068575;28;20183;-68
2023/01/14 09:55:56;;;;;;;1999.90;999.90;;;;;;;9.49;100.00;95559.59;5068685;28;20373;-69
2023/01/14 09:58:28;;;;;;;1999.90;999.90;;;;;;;9.59;100.00;95542.44;5067952;28;20365;-71
2023/01/14 10:01:10;;;;;;;1999.90;999.90;;;;;;;9.42;100.00;95548.72;5068544;28;20180;-68
2023/01/14 10:03:48;;;;;;;1999.90;999.90;;;;;;;9.67;100.00;95552.19;5067993;28;20173;-67
2023/01/14 10:06:17;;;;;;;1999.90;999.90;;;;;;;10.19;100.00;95544.25;5068435;28;20168;-68
2023/01/14 10:08:58;;;;;;;1999.90;999.90;;;;;;;10.77;100.00;95539.63;5067949;28;20172;-66
2023/01/14 10:11:27;;;;;;;1999.90;999.90;;;;;;;10.94;100.00;95532.47;5068385;28;20173;-70
2023/01/14 10:14:36;;;;;;;1999.90;999.90;;;;;;;10.95;100.00;95528.56;5068151;28;20195;-65
2023/01/14 10:17:08;;;;;;;1999.90;999.90;;;;;;;10.93;100.00;95530.94;5054345;28;20212;-69
2023/01/14 10:19:49;;;;;;;1999.90;999.90;;;;;;;10.61;100.00;95536.59;5068071;28;20193;-68
2023/01/14 10:22:28;;;;;;;1999.90;999.90;;;;;;;10.69;100.00;95515.47;5068139;28;20254;-67
2023/01/14 10:24:53;;;;;;;1999.90;999.90;;;;;;;10.34;100.00;95515.72;5068215;28;20479;-67
2023/01/14 10:27:19;;;;;;;1999.90;999.90;;;;;;;10.04;100.00;95503.34;5068099;28;20203;-66
2023/01/14 10:29:48;;;;;;;1999.90;999.90;;;;;;;9.79;100.00;95497.22;5067844;28;20532;-67
2023/01/14 10:32:15;;;;;;;1999.90;999.90;;;;;;;9.95;100.00;95489.34;5067482;28;20238;-66
2023/01/14 10:34:46;;;;;;;1999.90;999.90;;;;;;;9.80;100.00;95482.38;5067492;28;20183;-67
2023/01/14 10:37:12;;;;;;;1999.90;999.90;;;;;;;9.73;100.00;95476.19;5067201;28;20379;-67
2023/01/14 10:39:52;;;;;;;1999.90;999.90;;;;;;;10.13;100.00;95477.59;5067886;28;20183;-69
2023/01/14 10:42:24;;;;;;;1999.90;999.90;;;;;;;10.61;100.00;95475.75;5067896;28;20173;-68
2023/01/14 10:44:50;;;;;;;1999.90;999.90;;;;;;;10.37;100.00;95471.25;5068156;28;20172;-70
2023/01/14 10:47:16;;;;;;;1999.90;999.90;;;;;;;10.50;100.00;95470.38;5066414;28;20218;-67
2023/01/14 10:50:25;;;;;;;1999.90;999.90;;;;;;;10.59;100.00;95456.28;5067494;28;20260;-67
2023/01/14 10:52:52;;;;;;;1999.90;999.90;;;;;;;10.56;100.00;95451.59;4968023;28;20207;-68
2023/01/14 10:55:23;;;;;;;1999.90;999.90;;;;;;;10.46;100.00;95452.44;5053034;28;20188;-67
2023/01/14 10:58:12;;;;;;;1999.90;999.90;;;;;;;10.61;100.00;95445.72;5067115;28;20170;-67
2023/01/14 11:00:44;;;;;;;1999.90;999.90;;;;;;;10.29;100.00;95442.41;5067604;28;20176;-67
2023/01/14 11:03:47;;;;;;;1999.90;999.90;;;;;;;10.06;100.00;95438.25;5067409;28;20195;-67
2023/01/14 11:06:15;;;;;;;1999.90;999.90;;;;;;;10.10;100.00;95433.56;5067008;28;20396;-66
2023/01/14 11:08:48;;;;;;;1999.90;999.90;;;;;;;10.18;100.00;95433.50;5067410;28;20197;-67
2023/01/14 11:11:22;;;;;;;1999.90;999.90;;;;;;;10.40;100.00;95422.06;5067324;28;20169;-67
2023/01/14 11:13:50;;;;;;;1999.90;999.90;;;;;;;10.47;100.00;95415.78;5067415;28;20198;-65
2023/01/14 11:16:25;;;;;;;1999.90;999.90;;;;;;;10.63;100.00;95403.16;5067556;28;20197;-67
2023/01/14 11:18:55;;;;;;;1999.90;999.90;;;;;;;10.75;100.00;95394.50;5067501;28;20179;-69
2023/01/14 11:21:22;;;;;;;1999.90;999.90;;;;;;;10.64;100.00;95393.81;5067321;28;20174;-66
2023/01/14 11:24:06;;;;;;;1999.90;999.90;;;;;;;10.50;100.00;95384.94;5067508;28;20517;-66
2023/01/14 11:26:39;;;;;;;1999.90;999.90;;;;;;;10.24;100.00;95385.53;5067279;28;20174;-66
2023/01/14 11:29:17;;;;;;;1999.90;999.90;;;;;;;10.47;100.00;95377.56;5066817;28;20202;-66